Time;durP1;ratioP1;P1;durP2;ratioP2;P2;SDS_P1;SDS_P2;PMS_P1;PMS_P2;Temp;Humidity;BMP_temperature;BMP_pressure;BME280_temperature;BME280_humidity;BME280_pressure;Samples;Min_cycle;Max_cycle;Signal;HPM_P1;HPM_P2
2021/12/26 00:01:40;;;;;;;9.55;8.50;;;;;;;-141.48;100.00;69781.59;5136518;28;20027;-87
2021/12/26 00:04:16;;;;;;;7.95;7.18;;;;;;;-141.48;100.00;69781.59;5134410;28;20401;-87
2021/12/26 00:06:46;;;;;;;9.80;8.90;;;;;;;-141.48;100.00;69781.59;5135629;29;20038;-87
2021/12/26 00:09:16;;;;;;;9.02;8.30;;;;;;;-141.48;100.00;69781.59;5135561;28;20433;-88
2021/12/26 00:11:47;;;;;;;9.80;8.88;;;;;;;-141.48;100.00;69781.59;5135569;29;20023;-87
2021/12/26 00:14:18;;;;;;;10.75;9.77;;;;;;;-141.48;100.00;69781.59;5135385;28;20098;-87
2021/12/26 00:16:48;;;;;;;8.32;7.70;;;;;;;-141.48;100.00;69781.59;5136550;28;20031;-89
2021/12/26 00:19:18;;;;;;;8.55;7.70;;;;;;;-141.48;100.00;69781.59;5135259;28;20114;-89
2021/12/26 00:21:49;;;;;;;11.43;10.63;;;;;;;-141.48;100.00;69781.59;5135638;29;20126;-87
2021/12/26 00:24:21;;;;;;;9.80;9.10;;;;;;;-141.48;100.00;69781.59;5136223;28;20038;-86
2021/12/26 00:26:51;;;;;;;9.88;9.07;;;;;;;-141.48;100.00;69781.59;5134829;28;20090;-87
2021/12/26 00:29:22;;;;;;;8.68;7.93;;;;;;;-141.48;100.00;69781.59;5135414;28;20105;-88
2021/12/26 00:31:52;;;;;;;9.70;8.77;;;;;;;-141.48;100.00;69781.59;5135346;29;20049;-87
2021/12/26 00:34:23;;;;;;;8.35;7.85;;;;;;;-141.48;100.00;69781.59;5136634;29;20023;-87
2021/12/26 00:36:53;;;;;;;9.20;8.48;;;;;;;-141.48;100.00;69781.59;5135661;28;20027;-88
2021/12/26 00:39:24;;;;;;;8.10;7.50;;;;;;;-141.48;100.00;69781.59;5135175;28;20027;-88
2021/12/26 00:41:54;;;;;;;10.00;9.13;;;;;;;-141.48;100.00;69781.59;5135700;29;20081;-87
2021/12/26 00:44:25;;;;;;;9.35;8.07;;;;;;;-141.48;100.00;69781.59;5135359;28;20027;-87
2021/12/26 00:46:55;;;;;;;9.27;8.57;;;;;;;-141.48;100.00;69781.59;5135605;29;20030;-86
2021/12/26 00:49:26;;;;;;;9.77;9.13;;;;;;;-141.48;100.00;69781.59;5136413;28;20110;-88
2021/12/26 00:51:56;;;;;;;9.00;8.32;;;;;;;-141.48;100.00;69781.59;5134998;28;20027;-87
2021/12/26 00:54:26;;;;;;;9.27;8.48;;;;;;;-141.48;100.00;69781.59;5137732;28;20449;-89
2021/12/26 00:56:58;;;;;;;9.05;8.43;;;;;;;-141.48;100.00;69781.59;5141628;28;20031;-87
2021/12/26 00:59:28;;;;;;;11.52;9.05;;;;;;;-141.48;100.00;69781.59;5145067;28;20019;-87
2021/12/26 01:01:59;;;;;;;9.85;9.13;;;;;;;-141.48;100.00;69781.59;5139215;28;20038;-87
2021/12/26 01:04:30;;;;;;;14.10;11.63;;;;;;;-141.48;100.00;69781.59;5134227;28;20042;-87
2021/12/26 01:07:07;;;;;;;8.98;8.18;;;;;;;-141.48;100.00;69781.59;5134876;28;20031;-87
2021/12/26 01:09:37;;;;;;;8.80;8.13;;;;;;;-141.48;100.00;69781.59;5136010;28;20024;-87
2021/12/26 01:12:13;;;;;;;9.60;8.60;;;;;;;-141.48;100.00;69781.59;5135525;28;20041;-87
2021/12/26 01:14:49;;;;;;;8.18;7.47;;;;;;;-141.48;100.00;69781.59;5134862;29;20030;-88
2021/12/26 01:17:23;;;;;;;10.70;9.90;;;;;;;-141.48;100.00;69781.59;5135690;28;20026;-87
2021/12/26 01:19:54;;;;;;;8.25;7.78;;;;;;;-141.48;100.00;69781.59;5133711;28;20106;-88
2021/12/26 01:22:26;;;;;;;9.02;8.18;;;;;;;-141.48;100.00;69781.59;5135694;28;20054;-86
2021/12/26 01:24:56;;;;;;;8.40;7.70;;;;;;;-141.48;100.00;69781.59;5133824;29;20186;-87
2021/12/26 01:27:27;;;;;;;9.05;8.48;;;;;;;-141.48;100.00;69781.59;5134063;29;20094;-87
2021/12/26 01:29:59;;;;;;;16.73;9.43;;;;;;;-141.48;100.00;69781.59;5134001;28;20027;-85
2021/12/26 01:32:30;;;;;;;8.75;7.97;;;;;;;-141.48;100.00;69781.59;5133520;29;20030;-87
2021/12/26 01:35:00;;;;;;;9.23;8.40;;;;;;;-141.48;100.00;69781.59;5135219;28;20482;-87
2021/12/26 01:37:31;;;;;;;8.85;8.20;;;;;;;-141.48;100.00;69781.59;5134987;29;20033;-87
2021/12/26 01:40:01;;;;;;;8.57;7.82;;;;;;;-141.48;100.00;69781.59;5135040;28;20028;-87
2021/12/26 01:42:33;;;;;;;10.05;9.35;;;;;;;-141.48;100.00;69781.59;5133882;28;20565;-88
2021/12/26 01:45:07;;;;;;;11.45;10.55;;;;;;;-141.48;100.00;69781.59;5133435;28;20073;-86
2021/12/26 01:47:38;;;;;;;8.95;8.38;;;;;;;-141.48;100.00;69781.59;5133695;29;20031;-89
2021/12/26 01:50:09;;;;;;;9.88;9.15;;;;;;;-141.48;100.00;69781.59;5133547;28;20035;-87
2021/12/26 01:52:40;;;;;;;14.52;10.07;;;;;;;-141.48;100.00;69781.59;5133090;29;20027;-87
2021/12/26 01:55:26;;;;;;;8.43;7.82;;;;;;;-141.48;100.00;69781.59;5133393;28;20023;-88
2021/12/26 01:57:57;;;;;;;9.70;8.82;;;;;;;-141.48;100.00;69781.59;5134910;28;20051;-88
2021/12/26 02:00:28;;;;;;;10.57;9.77;;;;;;;-141.48;100.00;69781.59;5133438;28;20051;-88
2021/12/26 02:02:59;;;;;;;10.05;9.43;;;;;;;-141.48;100.00;69781.59;5133017;28;20027;-87
2021/12/26 02:05:29;;;;;;;11.50;10.57;;;;;;;-141.48;100.00;69781.59;5131577;29;20055;-86
2021/12/26 02:08:00;;;;;;;9.65;9.05;;;;;;;-141.48;100.00;69781.59;5133058;28;20548;-87
2021/12/26 02:10:30;;;;;;;15.25;10.40;;;;;;;-141.48;100.00;69781.59;5131790;28;20043;-88
2021/12/26 02:13:01;;;;;;;10.80;9.90;;;;;;;-141.48;100.00;69781.59;5133763;28;20027;-88
2021/12/26 02:15:32;;;;;;;11.65;10.68;;;;;;;-141.48;100.00;69781.59;5131998;28;20027;-88
2021/12/26 02:18:06;;;;;;;12.65;11.60;;;;;;;-141.48;100.00;69781.59;5131886;28;20031;-87
2021/12/26 02:23:41;;;;;;;10.80;9.90;;;;;;;-141.48;100.00;69781.59;5132797;29;20521;-86
2021/12/26 02:28:45;;;;;;;9.80;9.10;;;;;;;-141.48;100.00;69781.59;5133428;28;20035;-87
2021/12/26 02:31:17;;;;;;;11.63;10.63;;;;;;;-141.48;100.00;69781.59;5133054;28;20110;-89
2021/12/26 02:33:47;;;;;;;12.85;11.57;;;;;;;-141.48;100.00;69781.59;5133082;28;20023;-87
2021/12/26 02:36:17;;;;;;;10.18;9.43;;;;;;;-141.48;100.00;69781.59;5132449;28;20119;-87
2021/12/26 02:38:48;;;;;;;10.20;9.48;;;;;;;-141.48;100.00;69781.59;5133790;28;20031;-89
2021/12/26 02:41:19;;;;;;;8.85;8.15;;;;;;;-141.48;100.00;69781.59;5132277;28;20070;-87
2021/12/26 02:43:49;;;;;;;9.93;9.38;;;;;;;-141.48;100.00;69781.59;5132111;29;20026;-88
2021/12/26 02:46:20;;;;;;;11.23;10.43;;;;;;;-141.48;100.00;69781.59;5132866;28;20058;-87
2021/12/26 02:48:50;;;;;;;10.73;9.73;;;;;;;-141.48;100.00;69781.59;5132405;28;20031;-87
2021/12/26 02:51:21;;;;;;;10.25;9.43;;;;;;;-141.48;100.00;69781.59;5137646;28;20038;-88
2021/12/26 02:53:51;;;;;;;11.02;9.90;;;;;;;-141.48;100.00;69781.59;5137277;28;20069;-89
2021/12/26 02:56:22;;;;;;;11.45;10.43;;;;;;;-141.48;100.00;69781.59;5138420;28;20054;-87
2021/12/26 02:58:52;;;;;;;11.52;10.63;;;;;;;-141.48;100.00;69781.59;5133812;29;20527;-88
2021/12/26 03:01:25;;;;;;;11.32;9.57;;;;;;;-141.48;100.00;69781.59;5132122;28;20042;-88
2021/12/26 03:03:56;;;;;;;10.27;9.57;;;;;;;-141.48;100.00;69781.59;5095048;28;1083945;-88
2021/12/26 03:06:37;;;;;;;12.52;11.32;;;;;;;-141.48;100.00;69781.59;5133804;29;20046;-87
2021/12/26 03:09:08;;;;;;;11.07;10.23;;;;;;;-141.48;100.00;69781.59;5132841;28;20023;-88
2021/12/26 03:11:39;;;;;;;10.85;9.55;;;;;;;-141.48;100.00;69781.59;5132862;29;20031;-88
2021/12/26 03:14:10;;;;;;;9.95;9.20;;;;;;;-141.48;100.00;69781.59;5133637;28;20033;-88
2021/12/26 03:16:51;;;;;;;13.15;12.18;;;;;;;-141.48;100.00;69781.59;5137140;28;20110;-89
2021/12/26 03:19:21;;;;;;;12.05;11.15;;;;;;;-141.48;100.00;69781.59;5136790;28;20066;-86
2021/12/26 03:21:52;;;;;;;11.88;10.70;;;;;;;-141.48;100.00;69781.59;5136014;29;20023;-86
2021/12/26 03:24:22;;;;;;;12.27;11.13;;;;;;;-141.48;100.00;69781.59;5135558;28;20030;-87
2021/12/26 03:27:00;;;;;;;13.50;11.73;;;;;;;-141.48;100.00;69781.59;5135795;28;20077;-87
2021/12/26 03:29:31;;;;;;;14.73;13.43;;;;;;;-141.48;100.00;69781.59;5135960;28;20252;-87
2021/12/26 03:32:03;;;;;;;13.07;11.98;;;;;;;-141.48;100.00;69781.59;5135868;29;20034;-88
2021/12/26 03:34:33;;;;;;;11.52;10.63;;;;;;;-141.48;100.00;69781.59;5135483;29;20122;-90
2021/12/26 03:37:04;;;;;;;13.45;11.18;;;;;;;-141.48;100.00;69781.59;5136135;28;20055;-88
2021/12/26 03:39:34;;;;;;;12.43;11.25;;;;;;;-141.48;100.00;69781.59;5135706;28;20023;-88
2021/12/26 03:42:05;;;;;;;16.67;14.45;;;;;;;-141.48;100.00;69781.59;5137096;29;20031;-88
2021/12/26 03:44:36;;;;;;;11.43;10.60;;;;;;;-141.48;100.00;69781.59;5136244;28;20027;-88
2021/12/26 03:47:07;;;;;;;12.50;11.50;;;;;;;-141.48;100.00;69781.59;5135220;28;20035;-87
2021/12/26 03:49:37;;;;;;;12.93;11.98;;;;;;;-141.48;100.00;69781.59;5136024;28;20392;-87
2021/12/26 03:52:08;;;;;;;13.32;12.45;;;;;;;-141.48;100.00;69781.59;5135421;29;20030;-86
2021/12/26 03:54:39;;;;;;;13.20;11.80;;;;;;;-141.48;100.00;69781.59;5134345;28;20038;-88
2021/12/26 03:57:09;;;;;;;11.13;10.32;;;;;;;-141.48;100.00;69781.59;5135322;28;20086;-86
2021/12/26 03:59:39;;;;;;;14.13;12.85;;;;;;;-141.48;100.00;69781.59;5135827;28;20023;-88
2021/12/26 04:02:11;;;;;;;11.82;10.65;;;;;;;-141.48;100.00;69781.59;5135694;29;20042;-87
2021/12/26 04:04:42;;;;;;;13.38;12.25;;;;;;;-141.48;100.00;69781.59;5134962;28;20042;-87
2021/12/26 04:07:13;;;;;;;14.35;12.93;;;;;;;-141.48;100.00;69781.59;5135339;29;20034;-86
2021/12/26 04:09:44;;;;;;;14.27;12.80;;;;;;;-141.48;100.00;69781.59;5135168;28;20023;-88
2021/12/26 04:12:14;;;;;;;13.38;12.20;;;;;;;-141.48;100.00;69781.59;5134716;29;20078;-88
2021/12/26 04:14:45;;;;;;;13.10;12.00;;;;;;;-141.48;100.00;69781.59;5135959;28;20027;-87
2021/12/26 04:17:15;;;;;;;12.10;11.13;;;;;;;-141.48;100.00;69781.59;5134872;28;20031;-87
2021/12/26 04:19:45;;;;;;;13.95;12.55;;;;;;;-141.48;100.00;69781.59;5134911;28;20030;-89
2021/12/26 04:22:16;;;;;;;14.20;13.05;;;;;;;-141.48;100.00;69781.59;5134046;28;20046;-88
2021/12/26 04:24:46;;;;;;;14.70;13.40;;;;;;;-141.48;100.00;69781.59;5134182;28;20031;-88
2021/12/26 04:27:17;;;;;;;12.40;11.43;;;;;;;-141.48;100.00;69781.59;5133765;29;20035;-87
2021/12/26 04:29:47;;;;;;;13.75;12.38;;;;;;;-141.48;100.00;69781.59;5135472;28;20019;-88
2021/12/26 04:32:18;;;;;;;13.93;12.70;;;;;;;-141.48;100.00;69781.59;5134525;29;20031;-87
2021/12/26 04:34:49;;;;;;;11.98;10.75;;;;;;;-141.48;100.00;69781.59;5134754;28;20027;-87
2021/12/26 04:37:19;;;;;;;11.55;10.75;;;;;;;-141.48;100.00;69781.59;5134698;28;20110;-88
2021/12/26 04:39:50;;;;;;;13.98;12.57;;;;;;;-141.48;100.00;69781.59;5135282;28;20477;-88
2021/12/26 04:42:20;;;;;;;15.55;14.27;;;;;;;-141.48;100.00;69781.59;5133792;29;20030;-87
2021/12/26 04:44:52;;;;;;;13.98;12.65;;;;;;;-141.48;100.00;69781.59;5132785;29;20035;-87
2021/12/26 04:47:22;;;;;;;14.07;12.93;;;;;;;-141.48;100.00;69781.59;5133332;29;20556;-87
2021/12/26 04:49:53;;;;;;;12.52;11.68;;;;;;;-141.48;100.00;69781.59;5133314;28;20055;-87
2021/12/26 04:52:23;;;;;;;12.25;11.30;;;;;;;-141.48;100.00;69781.59;5133639;28;20037;-88
2021/12/26 04:54:54;;;;;;;12.75;11.65;;;;;;;-141.48;100.00;69781.59;5133669;28;20023;-88
2021/12/26 04:57:24;;;;;;;12.77;11.88;;;;;;;-141.48;100.00;69781.59;5134378;28;20031;-86
2021/12/26 04:59:55;;;;;;;12.45;11.52;;;;;;;-141.48;100.00;69781.59;5134503;28;20019;-89
2021/12/26 05:02:28;;;;;;;12.63;11.48;;;;;;;-141.48;100.00;69781.59;5133622;29;20027;-87
2021/12/26 05:04:58;;;;;;;13.93;12.98;;;;;;;-141.48;100.00;69781.59;5182464;23;20053;-84
2021/12/26 05:07:29;;;;;;;14.13;12.90;;;;;;;-141.48;100.00;69781.59;5189362;28;20030;-83
2021/12/26 05:09:59;;;;;;;13.38;12.32;;;;;;;-141.48;100.00;69781.59;5198207;28;20082;-84
2021/12/26 05:12:30;;;;;;;13.68;11.35;;;;;;;-141.48;100.00;69781.59;5198283;28;20120;-83
2021/12/26 05:15:02;;;;;;;14.25;13.05;;;;;;;-141.48;100.00;69781.59;5197347;28;20028;-84
2021/12/26 05:17:33;;;;;;;14.82;13.68;;;;;;;-141.48;100.00;69781.59;5198613;28;20030;-84
2021/12/26 05:20:04;;;;;;;12.90;11.95;;;;;;;-141.48;100.00;69781.59;5198745;28;20029;-83
2021/12/26 05:22:34;;;;;;;17.52;11.88;;;;;;;-141.48;100.00;69781.59;5198454;28;20033;-84
2021/12/26 05:25:09;;;;;;;13.55;12.57;;;;;;;-141.48;100.00;69781.59;5197544;28;20030;-84
2021/12/26 05:27:40;;;;;;;12.00;11.02;;;;;;;-141.48;100.00;69781.59;5180244;28;20033;-84
2021/12/26 05:30:13;;;;;;;11.77;10.85;;;;;;;-141.48;100.00;69781.59;5180502;28;20113;-84
2021/12/26 05:32:45;;;;;;;13.27;12.07;;;;;;;-141.48;100.00;69781.59;5180850;28;20021;-84
2021/12/26 05:35:17;;;;;;;13.07;12.27;;;;;;;-141.48;100.00;69781.59;5179728;28;20030;-84
2021/12/26 05:37:48;;;;;;;14.27;13.07;;;;;;;-141.48;100.00;69781.59;5197308;28;20033;-84
2021/12/26 05:40:19;;;;;;;12.13;11.18;;;;;;;-141.48;100.00;69781.59;5181029;28;20072;-83
2021/12/26 05:42:50;;;;;;;12.77;11.80;;;;;;;-141.48;100.00;69781.59;5198628;28;20682;-84
2021/12/26 05:45:20;;;;;;;11.80;11.00;;;;;;;-141.48;100.00;69781.59;5198091;28;20030;-84
2021/12/26 05:47:51;;;;;;;12.82;11.90;;;;;;;-141.48;100.00;69781.59;5198129;28;20053;-84
2021/12/26 05:50:22;;;;;;;13.00;12.10;;;;;;;-141.48;100.00;69781.59;5198028;28;20057;-83
2021/12/26 05:52:52;;;;;;;10.95;10.25;;;;;;;-141.48;100.00;69781.59;5180087;28;20033;-84
2021/12/26 05:55:23;;;;;;;12.38;11.38;;;;;;;-141.48;100.00;69781.59;5197823;28;20022;-84
2021/12/26 05:57:53;;;;;;;13.95;12.73;;;;;;;-141.48;100.00;69781.59;5196259;28;20073;-83
2021/12/26 06:00:24;;;;;;;12.35;11.38;;;;;;;-141.48;100.00;69781.59;5197272;28;20018;-83
2021/12/26 06:02:55;;;;;;;11.98;10.95;;;;;;;-141.48;100.00;69781.59;5197601;28;20053;-84
2021/12/26 06:05:25;;;;;;;14.60;13.50;;;;;;;-141.48;100.00;69781.59;5179620;28;20022;-85
2021/12/26 06:07:56;;;;;;;12.02;11.30;;;;;;;-141.48;100.00;69781.59;5197910;28;20029;-84
2021/12/26 06:10:26;;;;;;;13.27;12.23;;;;;;;-141.48;100.00;69781.59;5180378;28;20025;-84
2021/12/26 06:12:56;;;;;;;14.77;13.73;;;;;;;-141.48;100.00;69781.59;5181303;28;20579;-84
2021/12/26 06:15:27;;;;;;;13.20;12.27;;;;;;;-141.48;100.00;69781.59;5198256;28;20089;-82
2021/12/26 06:17:57;;;;;;;12.98;12.07;;;;;;;-141.48;100.00;69781.59;5199007;28;20029;-84
2021/12/26 06:20:28;;;;;;;10.70;9.95;;;;;;;-141.48;100.00;69781.59;5198691;28;20026;-84
2021/12/26 06:22:59;;;;;;;13.05;12.15;;;;;;;-141.48;100.00;69781.59;5182115;28;20044;-84
2021/12/26 06:25:30;;;;;;;15.00;12.90;;;;;;;-141.48;100.00;69781.59;5206895;28;20070;-84
2021/12/26 06:28:00;;;;;;;14.02;12.82;;;;;;;-141.48;100.00;69781.59;5209493;28;20041;-82
2021/12/26 06:30:31;;;;;;;15.15;13.75;;;;;;;-141.48;100.00;69781.59;5208119;28;20033;-84
2021/12/26 06:33:01;;;;;;;12.48;11.52;;;;;;;-141.48;100.00;69781.59;5207536;28;20030;-84
2021/12/26 06:35:32;;;;;;;12.73;11.82;;;;;;;-141.48;100.00;69781.59;5190872;28;20021;-83
2021/12/26 06:38:02;;;;;;;13.25;12.27;;;;;;;-141.48;100.00;69781.59;5208212;28;20034;-83
2021/12/26 06:40:33;;;;;;;13.40;12.40;;;;;;;-141.48;100.00;69781.59;5190394;28;20081;-84
2021/12/26 06:43:05;;;;;;;13.98;12.60;;;;;;;-141.48;100.00;69781.59;5190536;28;20029;-84
2021/12/26 06:45:36;;;;;;;14.98;13.70;;;;;;;-141.48;100.00;69781.59;5191038;28;20013;-84
2021/12/26 06:48:07;;;;;;;13.45;12.15;;;;;;;-141.48;100.00;69781.59;5208285;28;20029;-84
2021/12/26 06:50:38;;;;;;;13.50;12.60;;;;;;;-141.48;100.00;69781.59;5210742;28;20030;-84
2021/12/26 06:53:08;;;;;;;13.95;12.98;;;;;;;-141.48;100.00;69781.59;5190901;28;20037;-84
2021/12/26 06:55:40;;;;;;;15.48;13.85;;;;;;;-141.48;100.00;69781.59;5203976;28;20025;-84
2021/12/26 06:58:11;;;;;;;12.40;11.43;;;;;;;-141.48;100.00;69781.59;5200304;28;20052;-85
2021/12/26 07:00:42;;;;;;;13.77;12.73;;;;;;;-141.48;100.00;69781.59;5183887;28;20029;-84
2021/12/26 07:03:13;;;;;;;13.93;12.63;;;;;;;-141.48;100.00;69781.59;5186857;28;20022;-85
2021/12/26 07:05:43;;;;;;;12.80;11.80;;;;;;;-141.48;100.00;69781.59;5205124;28;20462;-85
2021/12/26 07:08:14;;;;;;;14.30;13.07;;;;;;;-141.48;100.00;69781.59;5203134;28;20030;-84
2021/12/26 07:10:45;;;;;;;15.05;13.55;;;;;;;-141.48;100.00;69781.59;5183838;28;20033;-84
2021/12/26 07:13:16;;;;;;;14.85;13.57;;;;;;;-141.48;100.00;69781.59;5201686;28;20036;-87
2021/12/26 07:15:46;;;;;;;16.00;14.57;;;;;;;-141.48;100.00;69781.59;5183522;28;20029;-86
2021/12/26 07:18:17;;;;;;;14.57;13.55;;;;;;;-141.48;100.00;69781.59;5183996;28;20470;-84
2021/12/26 07:20:48;;;;;;;11.98;11.15;;;;;;;-141.48;100.00;69781.59;5200837;28;20443;-84
2021/12/26 07:23:19;;;;;;;13.77;12.65;;;;;;;-141.48;100.00;69781.59;5184195;28;20022;-83
2021/12/26 07:25:49;;;;;;;17.98;13.98;;;;;;;-141.48;100.00;69781.59;5187566;28;20091;-85
2021/12/26 07:28:20;;;;;;;15.65;14.43;;;;;;;-141.48;100.00;69781.59;5205681;28;20052;-88
2021/12/26 07:30:51;;;;;;;15.30;12.38;;;;;;;-141.48;100.00;69781.59;5203346;28;20053;-85
2021/12/26 07:33:22;;;;;;;16.08;14.77;;;;;;;-141.48;100.00;69781.59;5186717;28;20068;-84
2021/12/26 07:35:52;;;;;;;14.20;12.90;;;;;;;-141.48;100.00;69781.59;5199454;28;20397;-85
2021/12/26 07:38:23;;;;;;;13.07;12.07;;;;;;;-141.48;100.00;69781.59;5180898;28;20032;-88
2021/12/26 07:40:54;;;;;;;15.65;14.35;;;;;;;-141.48;100.00;69781.59;5181329;28;20060;-85
2021/12/26 07:43:25;;;;;;;14.50;13.45;;;;;;;-141.48;100.00;69781.59;5181691;28;20037;-84
2021/12/26 07:45:55;;;;;;;14.23;13.02;;;;;;;-141.48;100.00;69781.59;5181436;28;20476;-85
2021/12/26 07:48:27;;;;;;;13.82;12.77;;;;;;;-141.48;100.00;69781.59;5181061;28;20025;-86
2021/12/26 07:50:58;;;;;;;14.65;13.55;;;;;;;-141.48;100.00;69781.59;5181721;28;20115;-85
2021/12/26 07:53:28;;;;;;;13.25;12.00;;;;;;;-141.48;100.00;69781.59;5181260;28;20041;-85
2021/12/26 07:55:59;;;;;;;17.15;15.73;;;;;;;-141.48;100.00;69781.59;5199206;28;20498;-86
2021/12/26 07:58:29;;;;;;;14.57;13.35;;;;;;;-141.48;100.00;69781.59;5181815;28;20412;-85
2021/12/26 08:01:01;;;;;;;15.18;14.07;;;;;;;-141.48;100.00;69781.59;5198467;28;20022;-89
2021/12/26 08:03:36;;;;;;;15.00;13.90;;;;;;;-141.48;100.00;69781.59;5181454;28;20026;-87
2021/12/26 08:06:07;;;;;;;14.75;13.68;;;;;;;-141.48;100.00;69781.59;5181885;28;20034;-86
2021/12/26 08:08:38;;;;;;;15.18;13.98;;;;;;;-141.48;100.00;69781.59;5181282;28;20085;-87
2021/12/26 08:11:09;;;;;;;16.63;15.05;;;;;;;-141.48;100.00;69781.59;5181681;28;20022;-87
2021/12/26 08:13:40;;;;;;;15.05;13.68;;;;;;;-141.48;100.00;69781.59;5181420;28;20404;-86
2021/12/26 08:16:10;;;;;;;15.95;14.73;;;;;;;-141.48;100.00;69781.59;5180892;28;20045;-86
2021/12/26 08:18:42;;;;;;;17.17;15.40;;;;;;;-141.48;100.00;69781.59;5199278;28;20041;-86
2021/12/26 08:21:13;;;;;;;13.82;12.85;;;;;;;-141.48;100.00;69781.59;5183014;28;20025;-90
2021/12/26 08:23:43;;;;;;;15.80;14.50;;;;;;;-141.48;100.00;69781.59;5182538;28;20073;-88
2021/12/26 08:26:15;;;;;;;16.10;14.57;;;;;;;-141.48;100.00;69781.59;5199958;28;20022;-85
2021/12/26 08:28:45;;;;;;;13.48;12.52;;;;;;;-141.48;100.00;69781.59;5181372;28;20029;-84
2021/12/26 08:31:17;;;;;;;16.52;15.23;;;;;;;-141.48;100.00;69781.59;5180438;28;20074;-84
2021/12/26 08:33:48;;;;;;;18.55;17.15;;;;;;;-141.48;100.00;69781.59;5180693;28;20399;-85
2021/12/26 08:36:20;;;;;;;16.45;15.18;;;;;;;-141.48;100.00;69781.59;5180840;28;20083;-84
2021/12/26 08:38:51;;;;;;;17.63;16.13;;;;;;;-141.48;100.00;69781.59;5179219;28;20076;-85
2021/12/26 08:41:23;;;;;;;18.15;16.83;;;;;;;-141.48;100.00;69781.59;5198587;28;20014;-84
2021/12/26 08:43:53;;;;;;;16.65;14.77;;;;;;;-141.48;100.00;69781.59;5197835;28;20056;-84
2021/12/26 08:46:24;;;;;;;20.35;18.58;;;;;;;-141.48;100.00;69781.59;5198512;28;20089;-84
2021/12/26 08:48:54;;;;;;;18.42;17.13;;;;;;;-141.48;100.00;69781.59;5181043;28;20033;-83
2021/12/26 08:51:25;;;;;;;16.48;15.13;;;;;;;-141.48;100.00;69781.59;5181652;28;20041;-86
2021/12/26 08:53:55;;;;;;;17.20;15.88;;;;;;;-141.48;100.00;69781.59;5200046;28;20495;-87
2021/12/26 08:56:26;;;;;;;17.45;16.08;;;;;;;-141.48;100.00;69781.59;5199361;28;20022;-86
2021/12/26 08:58:56;;;;;;;16.80;15.27;;;;;;;-141.48;100.00;69781.59;5200245;28;20167;-87
2021/12/26 09:01:27;;;;;;;17.20;15.90;;;;;;;-141.48;100.00;69781.59;5181901;28;20026;-87
2021/12/26 09:03:58;;;;;;;16.98;15.18;;;;;;;-141.48;100.00;69781.59;5198783;28;20055;-88
2021/12/26 09:06:29;;;;;;;18.38;16.85;;;;;;;-141.48;100.00;69781.59;5181424;28;20026;-87
2021/12/26 09:08:59;;;;;;;17.48;15.68;;;;;;;-141.48;100.00;69781.59;5181214;28;20495;-87
2021/12/26 09:11:30;;;;;;;18.05;16.42;;;;;;;-141.48;100.00;69781.59;5199176;28;20026;-89
2021/12/26 09:14:00;;;;;;;21.88;20.00;;;;;;;-141.48;100.00;69781.59;5199426;28;20033;-87
2021/12/26 09:16:33;;;;;;;19.23;17.25;;;;;;;-141.48;100.00;69781.59;5199042;28;20024;-87
2021/12/26 09:19:05;;;;;;;19.70;18.10;;;;;;;-141.48;100.00;69781.59;5181814;28;20032;-86
2021/12/26 09:21:36;;;;;;;17.45;16.05;;;;;;;-141.48;100.00;69781.59;5181588;28;20017;-86
2021/12/26 09:24:06;;;;;;;17.73;16.23;;;;;;;-141.48;100.00;69781.59;5199495;28;20488;-87
2021/12/26 09:26:37;;;;;;;20.00;18.23;;;;;;;-141.48;100.00;69781.59;5204846;28;20024;-86
2021/12/26 09:29:07;;;;;;;16.85;15.45;;;;;;;-141.48;100.00;69781.59;5192620;28;20020;-89
2021/12/26 09:31:38;;;;;;;18.02;16.30;;;;;;;-141.48;100.00;69781.59;5209715;28;20179;-91
2021/12/26 09:34:09;;;;;;;15.68;14.23;;;;;;;-141.48;100.00;69781.59;5193615;28;20082;-87
2021/12/26 09:36:39;;;;;;;16.40;15.15;;;;;;;-141.48;100.00;69781.59;5193379;28;20025;-90
2021/12/26 09:39:11;;;;;;;17.90;16.02;;;;;;;-141.48;100.00;69781.59;5210463;28;20040;-91
2021/12/26 09:41:41;;;;;;;17.48;16.00;;;;;;;-141.48;100.00;69781.59;5192714;28;20025;-92
2021/12/26 09:44:12;;;;;;;18.42;15.95;;;;;;;-141.48;100.00;69781.59;5184614;28;20082;-88
2021/12/26 09:46:43;;;;;;;13.30;12.20;;;;;;;-141.48;100.00;69781.59;5171901;28;20018;-87
2021/12/26 09:49:14;;;;;;;15.57;14.30;;;;;;;-141.48;100.00;69781.59;5173065;28;20026;-89
2021/12/26 09:51:45;;;;;;;18.70;16.83;;;;;;;-141.48;100.00;69781.59;5188137;28;20026;-89
2021/12/26 09:54:17;;;;;;;16.33;14.82;;;;;;;-141.48;100.00;69781.59;5170711;28;20031;-85
2021/12/26 09:56:47;;;;;;;15.85;14.60;;;;;;;-141.48;100.00;69781.59;5188418;28;20037;-90
2021/12/26 09:59:20;;;;;;;18.80;17.05;;;;;;;-141.48;100.00;69781.59;5171574;28;20082;-88
2021/12/26 10:01:54;;;;;;;17.02;15.75;;;;;;;-141.48;100.00;69781.59;5171558;28;20057;-87
2021/12/26 10:04:27;;;;;;;17.58;15.88;;;;;;;-141.48;100.00;69781.59;5171090;28;20027;-86
2021/12/26 10:06:59;;;;;;;18.00;16.65;;;;;;;-141.48;100.00;69781.59;5168080;28;20037;-87
2021/12/26 10:09:32;;;;;;;19.30;17.75;;;;;;;-141.48;100.00;69781.59;5180182;28;20033;-88
2021/12/26 10:12:04;;;;;;;17.58;16.38;;;;;;;-141.48;100.00;69781.59;5161442;28;20030;-85
2021/12/26 10:14:38;;;;;;;17.83;16.42;;;;;;;-141.48;100.00;69781.59;5176158;28;20026;-85
2021/12/26 10:17:17;;;;;;;17.27;15.77;;;;;;;-141.48;100.00;69781.59;5158321;28;20088;-86
2021/12/26 10:19:48;;;;;;;17.95;15.90;;;;;;;-141.48;100.00;69781.59;5142974;28;20034;-86
2021/12/26 10:22:29;;;;;;;15.95;14.60;;;;;;;-141.48;100.00;69781.59;5157677;28;20037;-86
2021/12/26 10:25:09;;;;;;;17.95;16.40;;;;;;;-141.48;100.00;69781.59;5162924;28;20040;-87
2021/12/26 10:27:41;;;;;;;16.77;15.43;;;;;;;-141.48;100.00;69781.59;5182495;28;20026;-86
2021/12/26 10:30:17;;;;;;;18.33;17.00;;;;;;;-141.48;100.00;69781.59;5182115;28;20026;-90
2021/12/26 10:32:47;;;;;;;18.80;17.13;;;;;;;-141.48;100.00;69781.59;5183916;28;20061;-85
2021/12/26 10:35:18;;;;;;;18.92;17.50;;;;;;;-141.48;100.00;69781.59;5182693;28;20029;-86
2021/12/26 10:37:51;;;;;;;19.05;17.48;;;;;;;-141.48;100.00;69781.59;5182356;28;20504;-86
2021/12/26 10:40:25;;;;;;;17.27;15.73;;;;;;;-141.48;100.00;69781.59;5202407;28;20068;-87
2021/12/26 10:42:57;;;;;;;19.83;18.23;;;;;;;-141.48;100.00;69781.59;5182637;28;20036;-87
2021/12/26 10:45:34;;;;;;;19.15;17.45;;;;;;;-141.48;100.00;69781.59;5183405;28;20034;-86
2021/12/26 10:48:07;;;;;;;20.45;19.02;;;;;;;-141.48;100.00;69781.59;5182282;28;20026;-87
2021/12/26 10:50:41;;;;;;;15.40;14.15;;;;;;;-141.48;100.00;69781.59;5200550;28;20028;-88
2021/12/26 10:53:14;;;;;;;18.80;17.30;;;;;;;-141.48;100.00;69781.59;5182784;28;20034;-85
2021/12/26 10:55:51;;;;;;;18.08;16.70;;;;;;;-141.48;100.00;69781.59;5201653;28;20022;-87
2021/12/26 10:58:23;;;;;;;19.15;17.55;;;;;;;-141.48;100.00;69781.59;5185625;28;20098;-87
2021/12/26 11:00:57;;;;;;;18.42;16.77;;;;;;;-141.48;100.00;69781.59;5186410;28;20026;-87
2021/12/26 11:03:30;;;;;;;18.52;16.92;;;;;;;-141.48;100.00;69781.59;5170360;28;20041;-87
2021/12/26 11:06:10;;;;;;;16.85;15.55;;;;;;;-141.48;100.00;69781.59;5180102;23;20049;-58
2021/12/26 11:08:42;;;;;;;;;;;;;;;-141.48;100.00;69781.59;5152037;28;20034;-58
2021/12/26 11:11:20;;;;;;;19.95;18.05;;;;;;;-141.48;100.00;69781.59;5150303;28;20258;-58
2021/12/26 11:14:01;;;;;;;18.83;17.23;;;;;;;-141.48;100.00;69781.59;5149869;28;20034;-59
2021/12/26 11:16:39;;;;;;;19.77;17.85;;;;;;;-141.48;100.00;69781.59;5150382;28;20045;-58
2021/12/26 11:19:09;;;;;;;18.55;16.98;;;;;;;-141.48;100.00;69781.59;5150273;28;20454;-58
2021/12/26 11:21:40;;;;;;;17.65;16.38;;;;;;;-141.48;100.00;69781.59;5149996;28;20022;-58